Main page
METAR-TAF:

METAR-TAF

Airports :

Alice Springs, Australia

Alice Springs Airport

latitude: 23-48S, longitude: 133-53E, elevation: 545 m

Current weather observation

The report was made 23 minutes ago, at 11:30 UTC
Wind 6 kt from the North/Northeast
Temperature 30°C
Humidity 33%
Pressure 1010 hPa
Visibility 10 km or more
Broken clouds at a height of 11500 ft

METAR: YBAS 201130Z AUTO 02006KT 9999 // BKN115 30/12 Q1010 RF00.0/000.0

Time: 21:23 (11:53 UTC)

Forecast

The report was made 26 minutes ago, at 11:27 UTC
Forecast valid from 20 at 12 UTC to 21 at 12 UTC
Wind 8 kt from the West
Visibility 10 km or more
no clouds below 1500 m and no cumulonimbus
From 21 at 0300 UTC
Wind 14 kt from the Southwest
Visibility 10 km or more
no clouds below 1500 m and no cumulonimbus
From 21 at 1000 UTC
Wind 8 kt from the South
Visibility 10 km or more
no clouds below 1500 m and no cumulonimbus

TAF: YBAS 201127Z 2012/2112 27008KT CAVOK FM210300 23014KT CAVOK FM211000 18008KT CAVOK

Weather observations and forecasts of more than 4000 airports (METAR and TAF reports).

The available stations are represented by yellow and red dots on the map.

Hover mouse over dot to see the name of the station.

Then click to see weather observations and forecasts.

To change the map : click on the green buttons with a black cross to zoom in, on the green button with a dash to zoom out, or on the green arrows for adjacent maps.


METAR-TAF: